Time;durP1;ratioP1;P1;durP2;ratioP2;P2;SDS_P1;SDS_P2;PMS_P1;PMS_P2;Temp;Humidity;BMP_temperature;BMP_pressure;BME280_temperature;BME280_humidity;BME280_pressure;Samples;Min_cycle;Max_cycle;Signal;HPM_P1;HPM_P2
2021/03/25 00:00:11;;;;;;;51.07;29.27;;;;;;;1.94;67.33;99466.28;2243097;79;21556;-79
2021/03/25 00:03:14;;;;;;;50.60;29.40;;;;;;;1.77;67.57;99462.38;2243572;79;21704;-78
2021/03/25 00:06:15;;;;;;;50.87;30.60;;;;;;;1.66;67.79;99456.98;2243873;79;21263;-78
2021/03/25 00:09:16;;;;;;;49.43;28.70;;;;;;;1.56;67.91;99460.73;2244304;79;21378;-78
2021/03/25 00:12:17;;;;;;;57.37;30.27;;;;;;;1.46;68.28;99459.72;2243763;79;21434;-79
2021/03/25 00:15:18;;;;;;;57.07;30.63;;;;;;;1.41;68.62;99455.11;2243954;79;21244;-77
2021/03/25 00:18:20;;;;;;;65.37;35.80;;;;;;;1.32;68.60;99459.73;2244075;79;21164;-79
2021/03/25 00:21:21;;;;;;;71.60;38.17;;;;;;;1.23;68.63;99456.22;2244068;79;21410;-78
2021/03/25 00:24:22;;;;;;;68.83;36.30;;;;;;;1.13;68.80;99449.66;2243099;79;21495;-78
2021/03/25 00:27:23;;;;;;;73.83;38.73;;;;;;;1.10;69.03;99457.20;2243118;79;21116;-78
2021/03/25 00:30:24;;;;;;;90.83;45.53;;;;;;;1.03;69.19;99456.34;2242637;79;21121;-79
2021/03/25 00:33:25;;;;;;;99.93;48.67;;;;;;;0.98;68.80;99457.77;2242946;79;21208;-78
2021/03/25 00:36:26;;;;;;;102.73;48.33;;;;;;;0.90;68.83;99458.59;2244502;79;21267;-78
2021/03/25 00:39:28;;;;;;;110.10;50.80;;;;;;;0.83;68.91;99455.14;2260582;78;21085;-78
2021/03/25 00:42:29;;;;;;;105.60;51.13;;;;;;;0.78;68.81;99453.09;2260805;78;21125;-78
2021/03/25 00:45:31;;;;;;;111.97;51.27;;;;;;;0.67;68.95;99448.59;2261189;79;21243;-78
2021/03/25 00:48:32;;;;;;;122.43;51.93;;;;;;;0.60;69.17;99443.48;2261359;78;21262;-78
2021/03/25 00:51:33;;;;;;;99.30;50.20;;;;;;;0.55;69.22;99452.59;2261037;78;21390;-78
2021/03/25 00:54:34;;;;;;;109.33;51.50;;;;;;;0.50;69.24;99445.01;2260920;79;21093;-78
2021/03/25 00:57:35;;;;;;;91.70;44.40;;;;;;;0.51;69.22;99450.63;2261193;78;21159;-77
2021/03/25 01:00:37;;;;;;;86.77;40.80;;;;;;;0.56;69.18;99444.09;2261232;78;21116;-78
2021/03/25 01:03:38;;;;;;;70.33;39.67;;;;;;;0.69;69.47;99439.30;2260604;78;21105;-78
2021/03/25 01:06:39;;;;;;;75.20;39.43;;;;;;;0.80;69.76;99442.11;2260248;78;21152;-78
2021/03/25 01:09:40;;;;;;;111.20;40.37;;;;;;;0.92;70.17;99434.27;2260522;78;21108;-77
2021/03/25 01:12:41;;;;;;;69.40;36.83;;;;;;;1.03;70.02;99421.64;2260622;78;21101;-78
2021/03/25 01:15:42;;;;;;;76.77;39.33;;;;;;;1.11;70.18;99422.97;2260114;78;21429;-78
2021/03/25 01:18:43;;;;;;;68.37;35.00;;;;;;;1.22;70.26;99427.45;2260935;78;21467;-78
2021/03/25 01:21:44;;;;;;;65.40;38.07;;;;;;;1.31;70.29;99424.11;2261017;78;21121;-78
2021/03/25 01:24:48;;;;;;;64.77;37.07;;;;;;;1.41;70.09;99428.09;2261326;78;21080;-78
2021/03/25 01:27:49;;;;;;;65.87;37.87;;;;;;;1.50;70.24;99426.05;2260582;79;21132;-79
2021/03/25 01:30:50;;;;;;;68.73;36.97;;;;;;;1.58;70.34;99423.10;2261120;79;21238;-78
2021/03/25 01:33:51;;;;;;;71.97;38.37;;;;;;;1.65;70.26;99421.77;2261314;78;21080;-77
2021/03/25 01:36:52;;;;;;;62.27;35.53;;;;;;;1.72;70.20;99416.16;2261335;78;21526;-78
2021/03/25 01:39:56;;;;;;;72.67;36.47;;;;;;;1.80;70.29;99417.50;2261970;79;21157;-77
2021/03/25 01:42:57;;;;;;;54.87;30.73;;;;;;;1.88;70.52;99421.37;2262025;79;21084;-79
2021/03/25 01:45:58;;;;;;;70.67;33.43;;;;;;;2.30;74.48;99415.48;2260945;79;21401;-77
2021/03/25 01:48:59;;;;;;;67.43;34.73;;;;;;;2.55;70.32;99413.39;2261718;79;21092;-79
2021/03/25 01:52:00;;;;;;;60.00;33.67;;;;;;;2.50;69.78;99407.52;2261510;79;21136;-78
2021/03/25 01:55:01;;;;;;;57.83;33.17;;;;;;;2.45;69.60;99399.95;2261636;79;21244;-78
2021/03/25 01:58:02;;;;;;;60.20;33.67;;;;;;;2.41;69.58;99399.30;2260966;79;21175;-78
2021/03/25 02:01:03;;;;;;;58.13;33.07;;;;;;;2.42;69.63;99407.11;2261326;79;21374;-78
2021/03/25 02:04:04;;;;;;;59.60;33.00;;;;;;;2.41;69.66;99396.73;2261302;79;21129;-77
2021/03/25 02:07:05;;;;;;;65.03;34.47;;;;;;;2.41;69.66;99391.57;2261028;79;21141;-78
2021/03/25 02:10:07;;;;;;;49.63;32.43;;;;;;;2.41;69.70;99393.75;2261207;79;21140;-78
2021/03/25 02:13:08;;;;;;;60.37;33.23;;;;;;;2.43;69.78;99389.56;2261337;79;21148;-77
2021/03/25 02:16:09;;;;;;;61.40;33.47;;;;;;;2.42;69.69;99389.08;2261122;79;21167;-78
2021/03/25 02:19:10;;;;;;;67.80;37.03;;;;;;;2.43;69.75;99393.42;2261319;79;21120;-77
2021/03/25 02:22:11;;;;;;;90.93;35.27;;;;;;;2.48;69.57;99398.41;2261347;79;21124;-78
2021/03/25 02:25:12;;;;;;;62.83;33.10;;;;;;;2.49;69.51;99395.44;2260648;79;21133;-78
2021/03/25 02:28:13;;;;;;;58.33;34.07;;;;;;;2.51;69.55;99392.13;2260490;79;21116;-78
2021/03/25 02:31:16;;;;;;;63.23;34.90;;;;;;;2.53;69.49;99394.39;2260016;79;21730;-78
2021/03/25 02:34:17;;;;;;;66.03;34.43;;;;;;;2.55;69.56;99390.20;2260759;79;21371;-77
2021/03/25 02:37:18;;;;;;;69.17;33.37;;;;;;;2.58;69.46;99391.16;2260167;78;21156;-77
2021/03/25 02:40:19;;;;;;;66.47;34.87;;;;;;;2.59;69.50;99381.34;2261340;79;21139;-78
2021/03/25 02:43:20;;;;;;;60.33;32.83;;;;;;;2.61;69.37;99384.91;2261295;79;21128;-77
2021/03/25 02:46:21;;;;;;;72.47;33.53;;;;;;;2.61;69.55;99379.35;2260475;79;21583;-79
2021/03/25 02:49:22;;;;;;;61.47;33.57;;;;;;;2.61;69.61;99383.63;2260886;79;21250;-79
2021/03/25 02:52:23;;;;;;;63.70;34.97;;;;;;;2.62;69.54;99369.92;2260868;79;21128;-78
2021/03/25 02:55:25;;;;;;;55.13;31.47;;;;;;;2.63;69.60;99374.28;2260921;79;21112;-79
2021/03/25 02:58:26;;;;;;;84.33;32.53;;;;;;;2.67;69.66;99377.49;2261323;79;21271;-78
2021/03/25 03:01:27;;;;;;;51.63;30.57;;;;;;;2.65;69.48;99373.95;2260615;79;21246;-76
2021/03/25 03:04:28;;;;;;;52.90;31.33;;;;;;;2.60;69.56;99375.00;2260451;79;21137;-77
2021/03/25 03:07:29;;;;;;;85.50;34.47;;;;;;;2.62;69.73;99376.37;2261133;79;21116;-78
2021/03/25 03:10:30;;;;;;;59.90;31.90;;;;;;;2.65;69.74;99372.26;2261403;79;21112;-78
2021/03/25 03:13:31;;;;;;;55.73;31.57;;;;;;;2.69;69.74;99373.30;2261358;79;21381;-78
2021/03/25 03:16:35;;;;;;;54.47;31.87;;;;;;;2.71;69.68;99373.86;2261801;79;21297;-78
2021/03/25 03:19:36;;;;;;;106.50;34.23;;;;;;;2.72;69.53;99373.45;2261177;79;21431;-77
2021/03/25 03:22:37;;;;;;;56.60;31.03;;;;;;;2.73;69.66;99379.09;2261561;79;21106;-79
2021/03/25 03:25:38;;;;;;;55.87;30.83;;;;;;;2.77;69.59;99378.44;2261511;79;21089;-78
2021/03/25 03:28:39;;;;;;;54.10;30.20;;;;;;;2.77;69.59;99378.44;2261348;79;21148;-79
2021/03/25 03:31:40;;;;;;;180.80;37.87;;;;;;;2.79;69.51;99385.85;2260816;79;21123;-79
2021/03/25 03:34:41;;;;;;;201.57;36.50;;;;;;;2.79;69.57;99384.56;2260685;79;21089;-78
2021/03/25 03:37:42;;;;;;;58.53;32.10;;;;;;;2.80;69.59;99382.47;2260422;79;21136;-78
2021/03/25 03:40:43;;;;;;;59.67;32.80;;;;;;;2.85;69.64;99381.00;2260352;79;21190;-78
2021/03/25 03:43:44;;;;;;;56.07;33.00;;;;;;;2.84;69.59;99380.12;2260200;79;21136;-77
2021/03/25 03:46:45;;;;;;;54.20;30.90;;;;;;;2.86;69.55;99382.77;2260423;79;21127;-78
2021/03/25 03:49:46;;;;;;;59.97;32.47;;;;;;;2.82;69.64;99376.58;2260688;79;21419;-78
2021/03/25 03:52:47;;;;;;;60.43;34.80;;;;;;;2.78;69.67;99367.32;2261832;79;21123;-78
2021/03/25 03:55:49;;;;;;;60.50;34.77;;;;;;;2.75;69.91;99363.30;2261457;79;21152;-79
2021/03/25 03:58:50;;;;;;;63.90;34.87;;;;;;;2.76;70.15;99368.94;2261382;79;21109;-78
2021/03/25 04:01:51;;;;;;;66.63;36.07;;;;;;;2.76;70.29;99364.66;2261489;79;21125;-79
2021/03/25 04:04:52;;;;;;;59.57;34.83;;;;;;;2.80;70.29;99360.14;2261825;79;21498;-78
2021/03/25 04:07:53;;;;;;;75.53;39.43;;;;;;;2.83;70.36;99367.15;2261545;79;21286;-77
2021/03/25 04:10:54;;;;;;;82.73;40.93;;;;;;;2.80;70.51;99370.86;2261591;79;21131;-78
2021/03/25 04:13:55;;;;;;;76.43;41.17;;;;;;;2.87;70.65;99374.23;2261789;79;21293;-79
2021/03/25 04:16:57;;;;;;;73.70;39.53;;;;;;;2.95;70.55;99372.03;2261975;79;21132;-78
2021/03/25 04:19:58;;;;;;;68.03;39.60;;;;;;;2.97;70.46;99370.42;2261647;79;21124;-78
2021/03/25 04:22:59;;;;;;;73.90;38.97;;;;;;;3.02;70.47;99362.51;2261981;79;21132;-78
2021/03/25 04:26:00;;;;;;;72.43;39.23;;;;;;;3.04;70.37;99368.22;2260531;79;21129;-78
2021/03/25 04:29:01;;;;;;;101.53;42.77;;;;;;;3.04;70.33;99361.77;2260500;79;21524;-77
2021/03/25 04:32:02;;;;;;;102.20;43.00;;;;;;;3.04;70.36;99360.48;2260315;79;21143;-77
2021/03/25 04:35:03;;;;;;;67.00;36.67;;;;;;;3.07;70.54;99358.05;2259780;79;21133;-77
2021/03/25 04:38:04;;;;;;;63.93;36.67;;;;;;;3.06;70.32;99356.28;2253674;78;21275;-77
2021/03/25 04:41:05;;;;;;;83.70;42.07;;;;;;;3.05;70.31;99360.97;2240039;79;21105;-78
2021/03/25 04:44:06;;;;;;;88.60;46.50;;;;;;;3.00;70.70;99375.73;2239724;79;21236;-77
2021/03/25 04:47:07;;;;;;;91.90;50.43;;;;;;;2.91;70.68;99376.16;2239803;79;21101;-77
2021/03/25 04:50:08;;;;;;;85.80;44.07;;;;;;;2.93;70.97;99379.70;2239679;79;21534;-77
2021/03/25 04:53:09;;;;;;;624.97;62.73;;;;;;;2.99;70.97;99381.70;2240226;79;21101;-77
2021/03/25 04:56:13;;;;;;;172.70;45.30;;;;;;;2.99;71.00;99381.70;2238972;79;21279;-78
2021/03/25 04:59:15;;;;;;;99.52;51.00;;;;;;;3.02;70.96;99384.02;2239233;79;21248;-78
2021/03/25 05:02:16;;;;;;;119.37;57.10;;;;;;;3.06;71.18;99384.66;2238692;79;21216;-77
2021/03/25 05:05:17;;;;;;;99.30;52.40;;;;;;;3.06;71.35;99394.09;2238206;79;21598;-77
2021/03/25 05:08:18;;;;;;;93.37;47.47;;;;;;;2.99;71.16;99393.30;2238447;79;21153;-77
2021/03/25 05:11:19;;;;;;;90.93;47.87;;;;;;;2.97;71.14;99388.06;2238383;79;21231;-77
2021/03/25 05:14:20;;;;;;;86.27;47.30;;;;;;;3.06;71.25;99396.67;2238781;79;21135;-77
2021/03/25 05:17:21;;;;;;;87.17;46.40;;;;;;;3.13;71.10;99390.60;2238477;79;21569;-78
2021/03/25 05:20:22;;;;;;;87.43;49.73;;;;;;;3.23;71.00;99394.92;2237669;79;21255;-77
2021/03/25 05:23:23;;;;;;;93.50;49.53;;;;;;;3.28;70.92;99388.30;2238064;79;21247;-77
2021/03/25 05:26:24;;;;;;;235.97;54.67;;;;;;;3.36;70.90;99389.55;2238976;79;21243;-78
2021/03/25 05:29:26;;;;;;;96.37;49.43;;;;;;;3.43;70.86;99392.51;2238227;79;21105;-78
2021/03/25 05:32:27;;;;;;;112.97;52.17;;;;;;;3.49;70.71;99400.58;2239372;79;21093;-78
2021/03/25 05:35:28;;;;;;;104.23;48.73;;;;;;;3.56;70.61;99408.62;2239146;79;21263;-78
2021/03/25 05:38:29;;;;;;;92.67;48.53;;;;;;;3.64;70.52;99392.69;2239564;79;21129;-77
2021/03/25 05:41:30;;;;;;;95.70;48.67;;;;;;;3.71;70.45;99393.86;2239430;79;21117;-77
2021/03/25 05:44:31;;;;;;;95.10;51.33;;;;;;;3.77;70.34;99396.73;2239931;79;21247;-77
2021/03/25 05:47:32;;;;;;;84.80;49.00;;;;;;;3.81;70.18;99398.65;2239387;79;21101;-79
2021/03/25 05:50:33;;;;;;;126.43;69.30;;;;;;;3.93;70.33;99400.92;2239629;79;21105;-77
2021/03/25 05:53:34;;;;;;;113.07;58.10;;;;;;;4.06;70.34;99401.97;2238503;79;21251;-78
2021/03/25 05:56:35;;;;;;;139.87;76.27;;;;;;;4.16;70.18;99406.73;2238863;79;21303;-78
2021/03/25 05:59:36;;;;;;;185.60;92.17;;;;;;;4.21;69.70;99409.13;2240062;79;21113;-77
2021/03/25 06:02:37;;;;;;;103.43;53.73;;;;;;;4.29;69.60;99405.19;2240299;79;21113;-78
2021/03/25 06:05:38;;;;;;;92.63;49.30;;;;;;;4.39;69.58;99407.81;2240570;79;21124;-80
2021/03/25 06:08:39;;;;;;;103.17;47.47;;;;;;;4.46;69.55;99413.33;2241455;79;21137;-79
2021/03/25 06:11:41;;;;;;;175.70;51.80;;;;;;;4.58;69.40;99410.81;2240511;79;21858;-78
2021/03/25 06:14:42;;;;;;;153.30;58.90;;;;;;;4.70;69.15;99417.81;2240458;79;21240;-79
2021/03/25 06:17:43;;;;;;;472.77;178.07;;;;;;;4.78;68.77;99419.92;2240695;79;21153;-79
2021/03/25 06:20:44;;;;;;;196.30;85.80;;;;;;;4.89;68.80;99419.50;2240734;79;21614;-78
2021/03/25 06:23:45;;;;;;;133.20;54.77;;;;;;;4.97;68.46;99415.13;2240773;79;21121;-77
2021/03/25 06:26:46;;;;;;;93.00;49.27;;;;;;;5.07;68.43;99417.30;2239848;79;21093;-78
2021/03/25 06:29:47;;;;;;;92.00;49.27;;;;;;;5.18;68.00;99416.86;2239369;79;21137;-78
2021/03/25 06:32:48;;;;;;;236.97;58.03;;;;;;;5.27;67.90;99413.40;2240156;79;21235;-79
2021/03/25 06:35:49;;;;;;;94.97;47.20;;;;;;;5.38;67.53;99413.43;2240261;79;21137;-78
2021/03/25 06:38:51;;;;;;;95.10;46.80;;;;;;;5.48;67.24;99416.88;2240155;79;21279;-78
2021/03/25 06:41:51;;;;;;;103.63;49.30;;;;;;;5.59;67.03;99422.08;2240387;79;21208;-78
2021/03/25 06:44:53;;;;;;;120.27;62.77;;;;;;;5.73;66.97;99418.33;2239148;79;21199;-78
2021/03/25 06:47:54;;;;;;;375.60;81.43;;;;;;;5.86;66.71;99414.93;2240422;79;21235;-78
2021/03/25 06:50:55;;;;;;;140.07;60.47;;;;;;;5.99;66.13;99426.28;2238969;79;21236;-77
2021/03/25 06:53:56;;;;;;;87.90;51.33;;;;;;;6.01;65.71;99431.11;2239726;79;21228;-77
2021/03/25 06:56:57;;;;;;;93.23;53.97;;;;;;;5.99;65.38;99433.64;2238655;79;21276;-77
2021/03/25 06:59:58;;;;;;;82.80;49.43;;;;;;;5.96;65.27;99436.53;2239558;79;21240;-78
2021/03/25 07:02:59;;;;;;;92.30;53.37;;;;;;;5.99;65.16;99430.17;2240193;79;21113;-77
2021/03/25 07:06:00;;;;;;;99.43;55.87;;;;;;;6.12;65.07;99431.15;2239434;79;21821;-78
2021/03/25 07:09:01;;;;;;;89.83;55.03;;;;;;;6.25;65.00;99430.80;2239242;79;21255;-78
2021/03/25 07:12:02;;;;;;;78.43;45.57;;;;;;;6.38;64.77;99427.84;2238578;79;21234;-78
2021/03/25 07:15:04;;;;;;;77.97;46.67;;;;;;;6.52;64.10;99429.64;2239202;79;21232;-77
2021/03/25 07:18:05;;;;;;;110.83;48.33;;;;;;;6.51;64.02;99427.88;2239725;79;21306;-78
2021/03/25 07:21:06;;;;;;;330.43;59.57;;;;;;;6.74;63.40;99430.02;2240033;79;21848;-76
2021/03/25 07:24:07;;;;;;;76.83;46.93;;;;;;;6.74;63.40;99430.02;2239244;79;21948;-77
2021/03/25 07:27:08;;;;;;;77.97;46.40;;;;;;;6.79;63.52;99431.48;2239509;79;21235;-77
2021/03/25 07:30:09;;;;;;;73.17;44.67;;;;;;;6.79;63.52;99431.48;2239395;79;21287;-77
2021/03/25 07:33:11;;;;;;;75.60;46.97;;;;;;;6.90;62.79;99428.86;2238374;79;21113;-79
2021/03/25 07:36:12;;;;;;;74.10;44.53;;;;;;;7.18;61.81;99420.34;2239139;79;21984;-78
2021/03/25 07:39:13;;;;;;;249.00;51.80;;;;;;;7.18;61.81;99420.34;2246203;79;21148;-78
2021/03/25 07:42:14;;;;;;;119.87;49.97;;;;;;;7.16;61.59;99429.80;2256868;78;21215;-77
2021/03/25 07:45:15;;;;;;;252.33;61.70;;;;;;;7.28;61.68;99422.02;2256801;78;21250;-77
2021/03/25 07:48:16;;;;;;;135.03;64.90;;;;;;;7.49;61.48;99424.86;2258117;78;21672;-77
2021/03/25 07:51:17;;;;;;;164.03;57.53;;;;;;;7.82;61.30;99418.19;2257416;78;21620;-78
2021/03/25 07:54:19;;;;;;;75.70;48.57;;;;;;;7.96;60.46;99425.12;2255755;78;21247;-77
2021/03/25 07:57:20;;;;;;;83.67;48.77;;;;;;;8.07;60.15;99425.04;2256908;78;21271;-77
2021/03/25 08:00:21;;;;;;;84.70;49.70;;;;;;;8.15;59.15;99423.55;2256849;78;21112;-76
2021/03/25 08:03:22;;;;;;;310.93;63.27;;;;;;;8.25;58.86;99424.30;2256659;78;21251;-77
2021/03/25 08:06:23;;;;;;;78.83;51.33;;;;;;;8.33;58.33;99423.64;2256537;78;21262;-77
2021/03/25 08:09:24;;;;;;;78.10;47.20;;;;;;;8.54;57.93;99423.01;2256933;78;21262;-77
2021/03/25 08:12:25;;;;;;;102.03;57.07;;;;;;;8.63;57.39;99418.06;2257048;78;21113;-76
2021/03/25 08:15:26;;;;;;;100.53;62.23;;;;;;;8.68;56.85;99426.92;2257431;78;21665;-77
2021/03/25 08:18:27;;;;;;;78.97;48.53;;;;;;;8.70;56.52;99430.87;2257332;78;21155;-78
2021/03/25 08:21:28;;;;;;;88.13;56.63;;;;;;;8.76;55.47;99426.72;2257885;78;21477;-78
2021/03/25 08:24:29;;;;;;;426.03;94.03;;;;;;;8.76;55.51;99425.84;2257863;78;21124;-77
2021/03/25 08:27:30;;;;;;;86.53;53.17;;;;;;;8.98;58.04;99424.29;2257359;78;21085;-76
2021/03/25 08:30:32;;;;;;;527.57;135.00;;;;;;;9.08;55.65;99422.81;2256996;78;21251;-76
2021/03/25 08:33:33;;;;;;;136.10;58.93;;;;;;;9.08;56.26;99426.30;2257000;78;21125;-75
2021/03/25 08:36:34;;;;;;;280.23;77.23;;;;;;;9.23;56.04;99424.52;2257043;78;21129;-79
2021/03/25 08:39:35;;;;;;;101.83;58.23;;;;;;;9.24;54.75;99426.28;2249581;78;21443;-80
2021/03/25 08:42:36;;;;;;;100.40;54.27;;;;;;;9.31;54.21;99426.03;2239422;79;21117;-78
2021/03/25 08:45:37;;;;;;;129.60;76.33;;;;;;;9.36;54.08;99430.94;2239035;79;22213;-77
2021/03/25 08:48:38;;;;;;;238.47;78.27;;;;;;;9.40;53.36;99431.47;2238534;79;21157;-79
2021/03/25 08:51:39;;;;;;;179.53;58.83;;;;;;;9.44;53.49;99433.31;2239948;79;21092;-78
2021/03/25 08:54:40;;;;;;;82.20;53.53;;;;;;;9.52;52.94;99427.45;2237943;79;21765;-76
2021/03/25 08:57:41;;;;;;;95.47;60.30;;;;;;;9.61;52.70;99423.34;2237515;79;21629;-77
2021/03/25 09:00:42;;;;;;;79.00;54.47;;;;;;;9.71;52.32;99418.81;2238169;79;21117;-77
2021/03/25 09:03:44;;;;;;;86.70;57.43;;;;;;;9.83;51.59;99420.00;2235972;79;21287;-76
2021/03/25 09:06:45;;;;;;;76.50;52.00;;;;;;;9.94;51.78;99418.06;2237865;79;21125;-77
2021/03/25 09:09:46;;;;;;;81.73;54.97;;;;;;;10.06;50.80;99423.56;2237466;79;21145;-77
2021/03/25 09:12:47;;;;;;;71.73;51.67;;;;;;;10.18;50.78;99416.89;2238789;79;21231;-76
2021/03/25 09:15:48;;;;;;;75.90;52.57;;;;;;;10.29;50.23;99412.38;2238636;79;21129;-77
2021/03/25 09:18:49;;;;;;;80.57;54.23;;;;;;;10.35;50.29;99414.69;2238447;79;21152;-75
2021/03/25 09:21:50;;;;;;;74.45;53.02;;;;;;;10.49;49.99;99411.10;2238841;79;21094;-77
2021/03/25 09:24:51;;;;;;;70.00;49.05;;;;;;;10.68;49.79;99408.45;2239210;79;21128;-77
2021/03/25 09:27:52;;;;;;;77.97;52.50;;;;;;;10.69;48.91;99411.09;2239555;79;21113;-77
2021/03/25 09:30:53;;;;;;;83.60;52.50;;;;;;;10.76;48.95;99403.83;2238536;79;21147;-77
2021/03/25 09:33:55;;;;;;;129.30;60.20;;;;;;;10.90;49.00;99405.83;2238196;79;21306;-76
2021/03/25 09:36:56;;;;;;;74.58;48.02;;;;;;;11.08;48.83;99406.19;2240042;79;21302;-77
2021/03/25 09:39:57;;;;;;;66.00;47.15;;;;;;;11.18;47.87;99402.46;2247195;79;21150;-77
2021/03/25 09:42:58;;;;;;;152.87;47.75;;;;;;;11.27;47.93;99396.95;2257101;78;21233;-77
2021/03/25 09:45:59;;;;;;;64.20;45.25;;;;;;;11.36;47.41;99396.71;2257077;78;21700;-77
2021/03/25 09:49:00;;;;;;;181.45;52.67;;;;;;;11.43;47.54;99399.89;2257388;78;21275;-79
2021/03/25 09:52:01;;;;;;;91.32;42.43;;;;;;;11.48;46.98;99399.53;2257899;78;21222;-76
2021/03/25 09:55:02;;;;;;;105.65;40.38;;;;;;;11.57;46.67;99404.47;2256595;78;21151;-76
2021/03/25 09:58:03;;;;;;;75.80;40.20;;;;;;;11.65;46.50;99399.81;2257775;78;21136;-76
2021/03/25 10:01:04;;;;;;;61.48;37.67;;;;;;;11.78;46.19;99398.31;2257491;78;21061;-76
2021/03/25 10:04:05;;;;;;;54.25;37.98;;;;;;;11.97;45.98;99399.05;2256408;78;21081;-77
2021/03/25 10:07:06;;;;;;;51.45;37.42;;;;;;;12.11;45.07;99396.63;2257285;78;21128;-76
2021/03/25 10:10:07;;;;;;;50.65;35.23;;;;;;;12.14;44.54;99398.02;2257819;78;21274;-77
2021/03/25 10:13:12;;;;;;;44.40;34.05;;;;;;;12.17;44.43;99394.13;2256933;78;21120;-76
2021/03/25 10:16:11;;;;;;;57.60;36.73;;;;;;;12.26;44.83;99388.14;2257175;79;21140;-77
2021/03/25 10:19:13;;;;;;;62.40;39.10;;;;;;;12.35;44.67;99385.22;2256969;78;21374;-78
2021/03/25 10:22:14;;;;;;;50.17;37.25;;;;;;;12.49;44.28;99381.90;2257013;78;21128;-76
2021/03/25 10:25:15;;;;;;;52.90;39.65;;;;;;;12.59;43.68;99387.27;2256681;78;21108;-77
2021/03/25 10:28:16;;;;;;;53.45;40.45;;;;;;;12.62;43.09;99385.13;2257646;79;21471;-76
2021/03/25 10:31:17;;;;;;;50.00;37.60;;;;;;;12.72;43.20;99379.12;2257681;78;21088;-76
2021/03/25 10:34:18;;;;;;;615.75;78.10;;;;;;;12.92;42.90;99376.73;2256488;78;21116;-76
2021/03/25 10:37:19;;;;;;;70.45;39.65;;;;;;;12.97;42.52;99377.23;2257417;78;21293;-78
2021/03/25 10:40:20;;;;;;;157.22;47.23;;;;;;;13.23;42.27;99372.75;2257879;78;21145;-77
2021/03/25 10:43:21;;;;;;;166.12;53.52;;;;;;;13.28;40.75;99373.24;2258272;78;21538;-76
2021/03/25 10:46:23;;;;;;;104.45;49.08;;;;;;;13.18;42.08;99374.45;2256449;78;21139;-78
2021/03/25 10:49:24;;;;;;;117.15;46.30;;;;;;;13.42;42.16;99372.05;2257108;78;21128;-77
2021/03/25 10:52:25;;;;;;;122.65;46.65;;;;;;;13.52;41.47;99373.89;2257556;78;21378;-77
2021/03/25 10:55:26;;;;;;;96.25;46.92;;;;;;;13.58;40.89;99370.44;2256503;78;21394;-77
2021/03/25 10:58:29;;;;;;;60.28;37.25;;;;;;;13.62;40.52;99368.28;2256337;78;21364;-78
2021/03/25 11:01:30;;;;;;;76.37;44.38;;;;;;;13.54;39.78;99367.34;2256680;78;21259;-77
2021/03/25 11:04:32;;;;;;;52.43;40.85;;;;;;;13.41;41.21;99364.17;2256820;78;21434;-76
2021/03/25 11:07:33;;;;;;;55.58;42.05;;;;;;;13.57;40.98;99359.50;2257179;79;21088;-78
2021/03/25 11:10:34;;;;;;;58.90;43.08;;;;;;;13.64;40.49;99354.75;2255576;78;21505;-76
2021/03/25 11:13:35;;;;;;;58.28;43.42;;;;;;;13.64;40.24;99353.44;2256557;78;21258;-76
2021/03/25 11:16:36;;;;;;;58.58;42.60;;;;;;;13.46;40.55;99351.55;2255864;78;21156;-77
2021/03/25 11:19:37;;;;;;;54.83;40.60;;;;;;;13.45;39.59;99348.48;2256654;78;21490;-77
2021/03/25 11:22:38;;;;;;;57.55;39.48;;;;;;;13.24;40.17;99350.91;2256985;78;21232;-76
2021/03/25 11:25:39;;;;;;;80.12;51.00;;;;;;;13.15;40.41;99340.31;2255774;78;21249;-76
2021/03/25 11:28:43;;;;;;;54.53;40.58;;;;;;;13.11;40.95;99341.14;2255913;78;21105;-76
2021/03/25 11:31:44;;;;;;;173.32;55.58;;;;;;;13.19;40.86;99335.14;2256825;78;21112;-76
2021/03/25 11:34:45;;;;;;;53.38;38.28;;;;;;;13.23;40.68;99328.19;2256362;78;21902;-78
2021/03/25 11:37:46;;;;;;;138.85;55.25;;;;;;;13.23;40.76;99321.20;2256816;78;21263;-78
2021/03/25 11:40:47;;;;;;;73.52;44.60;;;;;;;13.23;41.52;99321.20;2256273;78;21580;-76
2021/03/25 11:43:48;;;;;;;57.33;43.73;;;;;;;13.40;40.67;99320.03;2256985;78;21249;-76
2021/03/25 11:46:49;;;;;;;59.00;44.03;;;;;;;13.37;40.19;99318.27;2257594;78;21135;-75
2021/03/25 11:49:51;;;;;;;60.85;42.83;;;;;;;13.09;39.92;99310.99;2257396;79;21452;-78
2021/03/25 11:52:52;;;;;;;63.23;47.33;;;;;;;12.79;40.86;99309.35;2257221;79;21250;-77
2021/03/25 11:55:53;;;;;;;66.47;45.60;;;;;;;12.86;41.41;99305.93;2257577;78;21097;-76
2021/03/25 11:58:54;;;;;;;67.05;45.58;;;;;;;13.11;41.59;99304.02;2258173;78;21148;-77
2021/03/25 12:01:55;;;;;;;65.95;46.35;;;;;;;13.28;41.24;99301.14;2258054;78;21100;-76
2021/03/25 12:04:56;;;;;;;66.85;44.25;;;;;;;13.41;41.08;99302.55;2257409;78;21117;-76
2021/03/25 12:07:57;;;;;;;93.15;63.13;;;;;;;13.41;40.46;99299.93;2257904;78;21517;-76
2021/03/25 12:10:58;;;;;;;66.42;45.95;;;;;;;13.50;40.69;99295.63;2257813;78;21145;-76
2021/03/25 12:13:59;;;;;;;54.10;38.88;;;;;;;13.59;40.22;99291.77;2256710;78;21116;-77
2021/03/25 12:17:00;;;;;;;57.08;43.87;;;;;;;13.66;39.80;99288.74;2257716;78;21287;-75
2021/03/25 12:20:01;;;;;;;58.05;41.77;;;;;;;13.66;39.93;99287.00;2227676;79;21113;-76
2021/03/25 12:23:02;;;;;;;58.08;43.45;;;;;;;13.61;38.93;99286.52;2256780;78;21840;-77
2021/03/25 12:26:04;;;;;;;61.85;44.42;;;;;;;13.48;39.81;99284.69;2257762;78;21112;-77
2021/03/25 12:29:05;;;;;;;60.73;46.98;;;;;;;13.52;39.49;99287.77;2257442;78;21235;-77
2021/03/25 12:32:06;;;;;;;59.05;45.15;;;;;;;13.28;40.11;99285.41;2257217;78;21121;-76
2021/03/25 12:35:07;;;;;;;59.33;44.65;;;;;;;13.28;40.37;99280.17;2257168;78;21445;-76
2021/03/25 12:38:11;;;;;;;293.77;60.88;;;;;;;13.14;39.81;99275.22;2256885;78;21611;-78
2021/03/25 12:41:12;;;;;;;66.02;45.75;;;;;;;13.08;40.70;99269.92;2256458;78;21151;-78
2021/03/25 12:44:13;;;;;;;63.68;47.75;;;;;;;13.14;40.97;99272.59;2255939;79;21499;-77
2021/03/25 12:47:14;;;;;;;61.23;44.37;;;;;;;13.25;40.31;99276.21;2255730;79;21584;-78
2021/03/25 12:50:15;;;;;;;62.95;44.60;;;;;;;13.03;39.81;99265.08;2255963;79;21251;-77
2021/03/25 12:53:16;;;;;;;62.58;44.35;;;;;;;12.94;40.57;99266.27;2256104;79;21085;-77
2021/03/25 12:56:19;;;;;;;58.73;43.02;;;;;;;13.06;41.08;99267.72;2256800;79;21871;-77
2021/03/25 12:59:20;;;;;;;72.70;43.45;;;;;;;13.27;40.25;99259.19;2257014;79;21239;-78
2021/03/25 13:02:21;;;;;;;65.83;44.60;;;;;;;13.31;40.56;99258.34;2255084;79;21224;-79
2021/03/25 13:05:22;;;;;;;81.12;44.10;;;;;;;13.29;40.38;99255.70;2254480;79;21698;-77
2021/03/25 13:08:23;;;;;;;66.70;42.73;;;;;;;13.38;40.59;99249.22;2252325;79;21871;-78
2021/03/25 13:11:25;;;;;;;71.92;46.83;;;;;;;13.52;40.42;99250.62;2254993;79;21171;-80
2021/03/25 13:14:26;;;;;;;69.95;46.20;;;;;;;13.58;40.26;99243.23;2256098;79;21242;-80
2021/03/25 13:17:27;;;;;;;68.72;43.92;;;;;;;13.75;40.30;99247.26;2256171;79;21152;-78
2021/03/25 13:20:28;;;;;;;70.05;43.50;;;;;;;13.76;39.76;99243.77;2256439;79;21871;-78
2021/03/25 13:23:29;;;;;;;96.28;63.28;;;;;;;13.74;39.22;99235.89;2255300;79;21781;-78
2021/03/25 13:26:30;;;;;;;65.03;44.73;;;;;;;13.75;39.82;99236.77;2255900;79;21124;-79
2021/03/25 13:29:31;;;;;;;61.37;41.85;;;;;;;13.75;39.90;99224.52;2257938;79;21324;-79
2021/03/25 13:32:32;;;;;;;58.05;44.65;;;;;;;13.74;39.88;99228.45;2256521;79;21449;-78
2021/03/25 13:35:34;;;;;;;75.70;43.60;;;;;;;13.66;40.31;99232.34;2256565;79;21255;-77
2021/03/25 13:38:35;;;;;;;62.88;43.30;;;;;;;13.76;39.94;99230.65;2255898;79;21172;-79
2021/03/25 13:41:36;;;;;;;60.60;43.25;;;;;;;13.80;39.81;99227.17;2246187;78;21648;-78
2021/03/25 13:44:37;;;;;;;60.45;44.00;;;;;;;13.83;39.87;99221.94;2239135;79;21547;-78
2021/03/25 13:47:38;;;;;;;60.63;43.92;;;;;;;13.84;39.63;99221.94;2238818;79;21263;-78
2021/03/25 13:50:40;;;;;;;61.55;44.75;;;;;;;13.78;39.68;99223.23;2239215;79;21744;-79
2021/03/25 13:53:41;;;;;;;63.70;46.42;;;;;;;13.77;39.44;99221.47;2240377;79;21247;-78